sensor_id;sensor_type;location;lat;lon;timestamp;P1;durP1;ratioP1;P2;durP2;ratioP2
11837;SDS011;5978;51.020;6.764;2022-12-29T00:01:17;1.20;;;0.80;;
11837;SDS011;5978;51.020;6.764;2022-12-29T00:03:45;0.80;;;0.80;;
11837;SDS011;5978;51.020;6.764;2022-12-29T00:06:11;1.10;;;0.80;;
11837;SDS011;5978;51.020;6.764;2022-12-29T00:08:36;0.70;;;0.60;;
11837;SDS011;5978;51.020;6.764;2022-12-29T00:11:10;1.00;;;0.73;;
11837;SDS011;5978;51.020;6.764;2022-12-29T00:13:41;1.97;;;0.73;;
11837;SDS011;5978;51.020;6.764;2022-12-29T00:16:26;1.30;;;0.80;;
11837;SDS011;5978;51.020;6.764;2022-12-29T00:18:52;0.70;;;0.60;;
11837;SDS011;5978;51.020;6.764;2022-12-29T00:21:18;0.80;;;0.73;;
11837;SDS011;5978;51.020;6.764;2022-12-29T00:24:04;1.13;;;0.63;;
11837;SDS011;5978;51.020;6.764;2022-12-29T00:27:32;0.73;;;0.70;;
11837;SDS011;5978;51.020;6.764;2022-12-29T00:29:56;0.80;;;0.70;;
11837;SDS011;5978;51.020;6.764;2022-12-29T00:32:41;1.00;;;0.80;;
11837;SDS011;5978;51.020;6.764;2022-12-29T00:35:29;0.70;;;0.60;;
11837;SDS011;5978;51.020;6.764;2022-12-29T00:38:03;1.00;;;0.60;;
11837;SDS011;5978;51.020;6.764;2022-12-29T00:40:49;0.77;;;0.60;;
11837;SDS011;5978;51.020;6.764;2022-12-29T00:43:34;0.90;;;0.70;;
11837;SDS011;5978;51.020;6.764;2022-12-29T00:46:18;0.80;;;0.67;;
11837;SDS011;5978;51.020;6.764;2022-12-29T00:48:43;0.80;;;0.60;;
11837;SDS011;5978;51.020;6.764;2022-12-29T00:51:27;0.70;;;0.60;;
11837;SDS011;5978;51.020;6.764;2022-12-29T00:53:53;1.53;;;0.70;;
11837;SDS011;5978;51.020;6.764;2022-12-29T00:56:19;1.73;;;0.60;;
11837;SDS011;5978;51.020;6.764;2022-12-29T00:58:44;0.70;;;0.60;;
11837;SDS011;5978;51.020;6.764;2022-12-29T01:01:10;3.57;;;0.70;;
11837;SDS011;5978;51.020;6.764;2022-12-29T01:03:36;0.70;;;0.50;;
11837;SDS011;5978;51.020;6.764;2022-12-29T01:06:03;0.70;;;0.60;;
11837;SDS011;5978;51.020;6.764;2022-12-29T01:08:30;0.90;;;0.60;;
11837;SDS011;5978;51.020;6.764;2022-12-29T01:10:59;0.90;;;0.60;;
11837;SDS011;5978;51.020;6.764;2022-12-29T01:13:25;4.10;;;0.60;;
11837;SDS011;5978;51.020;6.764;2022-12-29T01:15:51;0.80;;;0.60;;
11837;SDS011;5978;51.020;6.764;2022-12-29T01:18:18;1.33;;;0.60;;
11837;SDS011;5978;51.020;6.764;2022-12-29T01:20:44;0.70;;;0.50;;
11837;SDS011;5978;51.020;6.764;2022-12-29T01:23:09;2.60;;;0.70;;
11837;SDS011;5978;51.020;6.764;2022-12-29T01:25:35;0.70;;;0.60;;
11837;SDS011;5978;51.020;6.764;2022-12-29T01:28:00;0.80;;;0.53;;
11837;SDS011;5978;51.020;6.764;2022-12-29T01:30:26;0.90;;;0.50;;
11837;SDS011;5978;51.020;6.764;2022-12-29T01:32:51;0.83;;;0.50;;
11837;SDS011;5978;51.020;6.764;2022-12-29T01:35:17;0.70;;;0.50;;
11837;SDS011;5978;51.020;6.764;2022-12-29T01:37:42;0.90;;;0.60;;
11837;SDS011;5978;51.020;6.764;2022-12-29T01:40:08;1.47;;;0.60;;
11837;SDS011;5978;51.020;6.764;2022-12-29T01:42:34;0.80;;;0.60;;
11837;SDS011;5978;51.020;6.764;2022-12-29T01:45:01;1.20;;;0.60;;
11837;SDS011;5978;51.020;6.764;2022-12-29T01:47:37;0.80;;;0.70;;
11837;SDS011;5978;51.020;6.764;2022-12-29T01:50:08;0.90;;;0.70;;
11837;SDS011;5978;51.020;6.764;2022-12-29T01:52:38;0.80;;;0.60;;
11837;SDS011;5978;51.020;6.764;2022-12-29T01:55:07;2.77;;;0.70;;
11837;SDS011;5978;51.020;6.764;2022-12-29T01:57:37;1.50;;;0.70;;
11837;SDS011;5978;51.020;6.764;2022-12-29T02:00:09;0.80;;;0.70;;
11837;SDS011;5978;51.020;6.764;2022-12-29T02:02:38;1.10;;;0.70;;
11837;SDS011;5978;51.020;6.764;2022-12-29T02:05:09;1.13;;;0.97;;
11837;SDS011;5978;51.020;6.764;2022-12-29T02:07:39;1.57;;;0.80;;
11837;SDS011;5978;51.020;6.764;2022-12-29T02:10:05;2.80;;;1.00;;
11837;SDS011;5978;51.020;6.764;2022-12-29T02:12:31;1.00;;;0.90;;
11837;SDS011;5978;51.020;6.764;2022-12-29T02:14:58;1.10;;;0.80;;
11837;SDS011;5978;51.020;6.764;2022-12-29T02:20:29;3.53;;;0.90;;
11837;SDS011;5978;51.020;6.764;2022-12-29T02:31:17;3.03;;;0.80;;
11837;SDS011;5978;51.020;6.764;2022-12-29T02:36:41;6.93;;;1.10;;
11837;SDS011;5978;51.020;6.764;2022-12-29T02:44:54;1.93;;;1.00;;
11837;SDS011;5978;51.020;6.764;2022-12-29T02:47:42;1.30;;;1.20;;
11837;SDS011;5978;51.020;6.764;2022-12-29T02:50:20;1.63;;;0.90;;
11837;SDS011;5978;51.020;6.764;2022-12-29T02:52:58;1.10;;;0.70;;
11837;SDS011;5978;51.020;6.764;2022-12-29T02:55:26;1.10;;;0.80;;
11837;SDS011;5978;51.020;6.764;2022-12-29T02:58:06;1.83;;;0.90;;
11837;SDS011;5978;51.020;6.764;2022-12-29T03:00:45;0.93;;;0.70;;
11837;SDS011;5978;51.020;6.764;2022-12-29T03:09:19;1.00;;;0.80;;
11837;SDS011;5978;51.020;6.764;2022-12-29T03:11:58;1.77;;;1.10;;
11837;SDS011;5978;51.020;6.764;2022-12-29T03:14:46;0.90;;;0.80;;
11837;SDS011;5978;51.020;6.764;2022-12-29T03:20:45;2.20;;;0.70;;
11837;SDS011;5978;51.020;6.764;2022-12-29T03:23:14;0.80;;;0.60;;
11837;SDS011;5978;51.020;6.764;2022-12-29T03:25:43;1.40;;;0.63;;
11837;SDS011;5978;51.020;6.764;2022-12-29T03:28:15;1.10;;;0.60;;
11837;SDS011;5978;51.020;6.764;2022-12-29T03:30:51;0.80;;;0.73;;
11837;SDS011;5978;51.020;6.764;2022-12-29T03:33:18;0.90;;;0.60;;
11837;SDS011;5978;51.020;6.764;2022-12-29T03:35:48;0.87;;;0.60;;
11837;SDS011;5978;51.020;6.764;2022-12-29T03:41:12;1.27;;;0.60;;
11837;SDS011;5978;51.020;6.764;2022-12-29T03:43:42;0.80;;;0.50;;
11837;SDS011;5978;51.020;6.764;2022-12-29T03:46:08;0.60;;;0.50;;
11837;SDS011;5978;51.020;6.764;2022-12-29T03:48:33;0.73;;;0.60;;
11837;SDS011;5978;51.020;6.764;2022-12-29T03:50:59;0.70;;;0.50;;
11837;SDS011;5978;51.020;6.764;2022-12-29T03:53:24;2.40;;;0.67;;
11837;SDS011;5978;51.020;6.764;2022-12-29T03:55:50;1.00;;;0.60;;
11837;SDS011;5978;51.020;6.764;2022-12-29T03:58:16;2.83;;;0.70;;
11837;SDS011;5978;51.020;6.764;2022-12-29T04:00:41;0.80;;;0.70;;
11837;SDS011;5978;51.020;6.764;2022-12-29T04:03:07;0.70;;;0.60;;
11837;SDS011;5978;51.020;6.764;2022-12-29T04:05:32;0.80;;;0.60;;
11837;SDS011;5978;51.020;6.764;2022-12-29T04:07:58;1.70;;;0.70;;
11837;SDS011;5978;51.020;6.764;2022-12-29T04:10:23;1.10;;;0.80;;
11837;SDS011;5978;51.020;6.764;2022-12-29T04:12:49;0.80;;;0.80;;
11837;SDS011;5978;51.020;6.764;2022-12-29T04:15:14;1.97;;;0.60;;
11837;SDS011;5978;51.020;6.764;2022-12-29T04:17:40;0.90;;;0.80;;
11837;SDS011;5978;51.020;6.764;2022-12-29T04:20:06;0.90;;;0.70;;
11837;SDS011;5978;51.020;6.764;2022-12-29T04:22:57;1.77;;;0.60;;
11837;SDS011;5978;51.020;6.764;2022-12-29T04:25:24;0.80;;;0.70;;
11837;SDS011;5978;51.020;6.764;2022-12-29T04:27:49;0.80;;;0.60;;
11837;SDS011;5978;51.020;6.764;2022-12-29T04:30:15;1.10;;;0.83;;
11837;SDS011;5978;51.020;6.764;2022-12-29T04:32:40;0.90;;;0.80;;
11837;SDS011;5978;51.020;6.764;2022-12-29T04:35:06;1.63;;;0.70;;
11837;SDS011;5978;51.020;6.764;2022-12-29T04:37:32;1.10;;;0.70;;
11837;SDS011;5978;51.020;6.764;2022-12-29T04:39:57;2.30;;;0.87;;
11837;SDS011;5978;51.020;6.764;2022-12-29T04:42:23;0.90;;;0.70;;
11837;SDS011;5978;51.020;6.764;2022-12-29T04:44:48;1.03;;;0.80;;
11837;SDS011;5978;51.020;6.764;2022-12-29T04:47:14;1.50;;;0.93;;
11837;SDS011;5978;51.020;6.764;2022-12-29T04:49:39;2.30;;;0.80;;
11837;SDS011;5978;51.020;6.764;2022-12-29T04:52:05;1.13;;;1.00;;
11837;SDS011;5978;51.020;6.764;2022-12-29T04:54:30;1.00;;;0.70;;
11837;SDS011;5978;51.020;6.764;2022-12-29T04:56:56;0.90;;;0.67;;
11837;SDS011;5978;51.020;6.764;2022-12-29T04:59:21;1.23;;;0.73;;
11837;SDS011;5978;51.020;6.764;2022-12-29T05:01:47;1.73;;;0.70;;
11837;SDS011;5978;51.020;6.764;2022-12-29T05:04:12;3.67;;;0.97;;
11837;SDS011;5978;51.020;6.764;2022-12-29T05:06:38;1.73;;;0.90;;
11837;SDS011;5978;51.020;6.764;2022-12-29T05:09:03;0.90;;;0.80;;
11837;SDS011;5978;51.020;6.764;2022-12-29T05:11:29;1.40;;;1.07;;
11837;SDS011;5978;51.020;6.764;2022-12-29T05:13:54;3.90;;;0.90;;
11837;SDS011;5978;51.020;6.764;2022-12-29T05:16:20;1.17;;;0.70;;
11837;SDS011;5978;51.020;6.764;2022-12-29T05:18:45;1.23;;;0.90;;
11837;SDS011;5978;51.020;6.764;2022-12-29T05:21:11;4.43;;;1.07;;
11837;SDS011;5978;51.020;6.764;2022-12-29T05:23:36;0.83;;;0.63;;
11837;SDS011;5978;51.020;6.764;2022-12-29T05:26:02;1.00;;;0.90;;
11837;SDS011;5978;51.020;6.764;2022-12-29T05:28:28;8.00;;;0.90;;
11837;SDS011;5978;51.020;6.764;2022-12-29T05:30:53;0.90;;;0.70;;
11837;SDS011;5978;51.020;6.764;2022-12-29T05:33:19;4.93;;;1.00;;
11837;SDS011;5978;51.020;6.764;2022-12-29T05:35:44;2.03;;;0.67;;
11837;SDS011;5978;51.020;6.764;2022-12-29T05:38:10;3.53;;;0.70;;
11837;SDS011;5978;51.020;6.764;2022-12-29T05:40:35;1.87;;;0.70;;
11837;SDS011;5978;51.020;6.764;2022-12-29T05:43:01;3.53;;;0.90;;
11837;SDS011;5978;51.020;6.764;2022-12-29T05:45:27;2.53;;;0.77;;
11837;SDS011;5978;51.020;6.764;2022-12-29T05:47:52;1.00;;;0.60;;
11837;SDS011;5978;51.020;6.764;2022-12-29T05:50:18;1.93;;;0.83;;
11837;SDS011;5978;51.020;6.764;2022-12-29T05:52:43;0.97;;;0.60;;
11837;SDS011;5978;51.020;6.764;2022-12-29T05:55:09;1.10;;;0.90;;
11837;SDS011;5978;51.020;6.764;2022-12-29T05:57:35;2.00;;;0.70;;
11837;SDS011;5978;51.020;6.764;2022-12-29T06:00:01;1.33;;;0.70;;
11837;SDS011;5978;51.020;6.764;2022-12-29T06:02:28;0.80;;;0.70;;
11837;SDS011;5978;51.020;6.764;2022-12-29T06:04:53;2.23;;;0.73;;
11837;SDS011;5978;51.020;6.764;2022-12-29T06:07:19;1.67;;;1.00;;
11837;SDS011;5978;51.020;6.764;2022-12-29T06:09:44;3.77;;;0.90;;
11837;SDS011;5978;51.020;6.764;2022-12-29T06:12:10;4.10;;;0.77;;
11837;SDS011;5978;51.020;6.764;2022-12-29T06:14:35;2.07;;;0.73;;
11837;SDS011;5978;51.020;6.764;2022-12-29T06:17:01;2.60;;;0.80;;
11837;SDS011;5978;51.020;6.764;2022-12-29T06:19:26;4.67;;;1.83;;
11837;SDS011;5978;51.020;6.764;2022-12-29T06:21:52;1.60;;;0.93;;
11837;SDS011;5978;51.020;6.764;2022-12-29T06:24:18;1.77;;;0.73;;
11837;SDS011;5978;51.020;6.764;2022-12-29T06:26:43;6.20;;;1.93;;
11837;SDS011;5978;51.020;6.764;2022-12-29T06:29:09;1.30;;;0.90;;
11837;SDS011;5978;51.020;6.764;2022-12-29T06:31:35;1.90;;;0.87;;
11837;SDS011;5978;51.020;6.764;2022-12-29T06:34:00;2.70;;;0.80;;
11837;SDS011;5978;51.020;6.764;2022-12-29T06:36:27;2.90;;;0.70;;
11837;SDS011;5978;51.020;6.764;2022-12-29T06:38:53;1.63;;;0.60;;
11837;SDS011;5978;51.020;6.764;2022-12-29T06:41:19;2.37;;;0.87;;
11837;SDS011;5978;51.020;6.764;2022-12-29T06:43:45;4.20;;;1.10;;
11837;SDS011;5978;51.020;6.764;2022-12-29T06:46:10;1.50;;;1.10;;
11837;SDS011;5978;51.020;6.764;2022-12-29T06:48:36;0.87;;;0.80;;
11837;SDS011;5978;51.020;6.764;2022-12-29T06:51:01;2.23;;;1.20;;
11837;SDS011;5978;51.020;6.764;2022-12-29T06:53:27;2.23;;;0.80;;
11837;SDS011;5978;51.020;6.764;2022-12-29T06:55:53;1.53;;;0.70;;
11837;SDS011;5978;51.020;6.764;2022-12-29T06:58:18;2.17;;;0.90;;
11837;SDS011;5978;51.020;6.764;2022-12-29T07:00:44;4.43;;;1.27;;
11837;SDS011;5978;51.020;6.764;2022-12-29T07:03:09;1.53;;;0.90;;
11837;SDS011;5978;51.020;6.764;2022-12-29T07:05:35;2.83;;;0.90;;
11837;SDS011;5978;51.020;6.764;2022-12-29T07:08:00;1.10;;;0.63;;
11837;SDS011;5978;51.020;6.764;2022-12-29T07:10:26;2.40;;;1.00;;
11837;SDS011;5978;51.020;6.764;2022-12-29T07:12:52;2.77;;;0.90;;
11837;SDS011;5978;51.020;6.764;2022-12-29T07:15:17;1.83;;;0.80;;
11837;SDS011;5978;51.020;6.764;2022-12-29T07:17:43;2.87;;;1.17;;
11837;SDS011;5978;51.020;6.764;2022-12-29T07:20:09;2.17;;;0.87;;
11837;SDS011;5978;51.020;6.764;2022-12-29T07:22:35;2.40;;;1.47;;
11837;SDS011;5978;51.020;6.764;2022-12-29T07:25:01;0.97;;;0.80;;
11837;SDS011;5978;51.020;6.764;2022-12-29T07:27:28;4.80;;;1.60;;
11837;SDS011;5978;51.020;6.764;2022-12-29T07:29:53;5.37;;;1.13;;
11837;SDS011;5978;51.020;6.764;2022-12-29T07:32:19;3.53;;;0.90;;
11837;SDS011;5978;51.020;6.764;2022-12-29T07:34:44;2.60;;;0.90;;
11837;SDS011;5978;51.020;6.764;2022-12-29T07:37:12;2.00;;;0.70;;
11837;SDS011;5978;51.020;6.764;2022-12-29T07:39:39;5.53;;;1.43;;
11837;SDS011;5978;51.020;6.764;2022-12-29T07:42:04;3.20;;;0.80;;
11837;SDS011;5978;51.020;6.764;2022-12-29T07:44:30;6.47;;;1.27;;
11837;SDS011;5978;51.020;6.764;2022-12-29T07:46:55;2.60;;;1.00;;
11837;SDS011;5978;51.020;6.764;2022-12-29T07:49:21;3.10;;;0.90;;
11837;SDS011;5978;51.020;6.764;2022-12-29T07:51:47;3.83;;;1.10;;
11837;SDS011;5978;51.020;6.764;2022-12-29T07:54:12;1.10;;;0.70;;
11837;SDS011;5978;51.020;6.764;2022-12-29T07:56:38;2.07;;;1.00;;
11837;SDS011;5978;51.020;6.764;2022-12-29T07:59:03;1.10;;;0.70;;
11837;SDS011;5978;51.020;6.764;2022-12-29T08:01:29;4.53;;;1.10;;
11837;SDS011;5978;51.020;6.764;2022-12-29T08:03:54;2.77;;;0.80;;
11837;SDS011;5978;51.020;6.764;2022-12-29T08:06:20;1.43;;;1.03;;
11837;SDS011;5978;51.020;6.764;2022-12-29T08:08:46;2.87;;;0.83;;
11837;SDS011;5978;51.020;6.764;2022-12-29T08:11:12;2.17;;;0.90;;
11837;SDS011;5978;51.020;6.764;2022-12-29T08:13:37;2.40;;;0.90;;
11837;SDS011;5978;51.020;6.764;2022-12-29T08:16:03;2.33;;;1.00;;
11837;SDS011;5978;51.020;6.764;2022-12-29T08:18:29;4.70;;;1.10;;
11837;SDS011;5978;51.020;6.764;2022-12-29T08:20:54;4.10;;;1.17;;
11837;SDS011;5978;51.020;6.764;2022-12-29T08:23:20;2.27;;;0.83;;
11837;SDS011;5978;51.020;6.764;2022-12-29T08:25:45;2.83;;;1.20;;
11837;SDS011;5978;51.020;6.764;2022-12-29T08:28:11;5.07;;;1.30;;
11837;SDS011;5978;51.020;6.764;2022-12-29T08:30:37;6.23;;;1.13;;
11837;SDS011;5978;51.020;6.764;2022-12-29T08:33:03;4.30;;;0.97;;
11837;SDS011;5978;51.020;6.764;2022-12-29T08:35:28;3.63;;;1.50;;
11837;SDS011;5978;51.020;6.764;2022-12-29T08:37:54;1.30;;;1.00;;
11837;SDS011;5978;51.020;6.764;2022-12-29T08:40:19;2.90;;;1.10;;
11837;SDS011;5978;51.020;6.764;2022-12-29T08:42:45;3.27;;;1.23;;
11837;SDS011;5978;51.020;6.764;2022-12-29T08:45:10;7.17;;;1.13;;
11837;SDS011;5978;51.020;6.764;2022-12-29T08:47:36;4.00;;;1.10;;
11837;SDS011;5978;51.020;6.764;2022-12-29T08:50:02;4.80;;;1.40;;
11837;SDS011;5978;51.020;6.764;2022-12-29T08:52:27;2.50;;;1.07;;
11837;SDS011;5978;51.020;6.764;2022-12-29T08:54:53;7.27;;;1.40;;
11837;SDS011;5978;51.020;6.764;2022-12-29T08:57:18;1.93;;;1.07;;
11837;SDS011;5978;51.020;6.764;2022-12-29T08:59:44;4.67;;;1.10;;
11837;SDS011;5978;51.020;6.764;2022-12-29T09:02:10;7.13;;;1.00;;
11837;SDS011;5978;51.020;6.764;2022-12-29T09:04:36;2.47;;;1.20;;
11837;SDS011;5978;51.020;6.764;2022-12-29T09:07:02;1.70;;;1.10;;
11837;SDS011;5978;51.020;6.764;2022-12-29T09:09:28;2.70;;;1.57;;
11837;SDS011;5978;51.020;6.764;2022-12-29T09:11:53;3.10;;;1.40;;
11837;SDS011;5978;51.020;6.764;2022-12-29T09:14:19;5.07;;;1.20;;
11837;SDS011;5978;51.020;6.764;2022-12-29T09:16:46;6.00;;;1.43;;
11837;SDS011;5978;51.020;6.764;2022-12-29T09:19:30;4.10;;;1.20;;
11837;SDS011;5978;51.020;6.764;2022-12-29T09:21:56;4.73;;;1.60;;
11837;SDS011;5978;51.020;6.764;2022-12-29T09:24:22;1.90;;;1.10;;
11837;SDS011;5978;51.020;6.764;2022-12-29T09:26:47;1.87;;;1.50;;
11837;SDS011;5978;51.020;6.764;2022-12-29T09:29:13;3.53;;;1.40;;
11837;SDS011;5978;51.020;6.764;2022-12-29T09:31:38;4.37;;;1.30;;
11837;SDS011;5978;51.020;6.764;2022-12-29T09:34:04;3.80;;;1.00;;
11837;SDS011;5978;51.020;6.764;2022-12-29T09:36:29;10.33;;;2.30;;
11837;SDS011;5978;51.020;6.764;2022-12-29T09:38:55;4.60;;;1.10;;
11837;SDS011;5978;51.020;6.764;2022-12-29T09:41:23;2.13;;;1.13;;
11837;SDS011;5978;51.020;6.764;2022-12-29T09:44:19;3.60;;;1.17;;
11837;SDS011;5978;51.020;6.764;2022-12-29T09:46:47;11.70;;;1.50;;
11837;SDS011;5978;51.020;6.764;2022-12-29T09:51:53;3.90;;;1.27;;
11837;SDS011;5978;51.020;6.764;2022-12-29T09:57:10;2.50;;;1.30;;
11837;SDS011;5978;51.020;6.764;2022-12-29T09:59:42;3.67;;;1.87;;
11837;SDS011;5978;51.020;6.764;2022-12-29T10:05:30;8.40;;;2.43;;
11837;SDS011;5978;51.020;6.764;2022-12-29T10:08:11;5.67;;;1.27;;
11837;SDS011;5978;51.020;6.764;2022-12-29T10:16:32;6.77;;;1.37;;
11837;SDS011;5978;51.020;6.764;2022-12-29T10:19:11;7.13;;;1.37;;
11837;SDS011;5978;51.020;6.764;2022-12-29T10:24:13;3.40;;;1.40;;
11837;SDS011;5978;51.020;6.764;2022-12-29T10:26:39;4.17;;;1.30;;
11837;SDS011;5978;51.020;6.764;2022-12-29T10:31:44;2.20;;;1.57;;
11837;SDS011;5978;51.020;6.764;2022-12-29T10:34:30;4.17;;;1.37;;
11837;SDS011;5978;51.020;6.764;2022-12-29T10:37:11;9.93;;;1.53;;
11837;SDS011;5978;51.020;6.764;2022-12-29T10:39:53;4.83;;;1.43;;
11837;SDS011;5978;51.020;6.764;2022-12-29T10:45:18;8.43;;;2.90;;
11837;SDS011;5978;51.020;6.764;2022-12-29T10:47:53;5.17;;;2.10;;
11837;SDS011;5978;51.020;6.764;2022-12-29T10:50:21;5.20;;;1.33;;
11837;SDS011;5978;51.020;6.764;2022-12-29T10:52:48;3.00;;;1.60;;
11837;SDS011;5978;51.020;6.764;2022-12-29T10:55:17;7.10;;;1.60;;
11837;SDS011;5978;51.020;6.764;2022-12-29T10:57:47;3.60;;;1.50;;
11837;SDS011;5978;51.020;6.764;2022-12-29T11:00:15;9.27;;;1.30;;
11837;SDS011;5978;51.020;6.764;2022-12-29T11:08:20;7.70;;;1.20;;
11837;SDS011;5978;51.020;6.764;2022-12-29T11:10:57;5.50;;;1.30;;
11837;SDS011;5978;51.020;6.764;2022-12-29T11:13:26;5.17;;;1.40;;
11837;SDS011;5978;51.020;6.764;2022-12-29T11:16:00;4.50;;;1.50;;
11837;SDS011;5978;51.020;6.764;2022-12-29T11:21:07;8.10;;;1.93;;
11837;SDS011;5978;51.020;6.764;2022-12-29T11:23:55;5.80;;;3.00;;
11837;SDS011;5978;51.020;6.764;2022-12-29T11:26:26;6.07;;;1.30;;
11837;SDS011;5978;51.020;6.764;2022-12-29T11:29:11;8.53;;;1.33;;
11837;SDS011;5978;51.020;6.764;2022-12-29T11:31:41;8.93;;;1.80;;
11837;SDS011;5978;51.020;6.764;2022-12-29T11:36:50;7.50;;;1.30;;
11837;SDS011;5978;51.020;6.764;2022-12-29T11:41:56;5.50;;;2.07;;
11837;SDS011;5978;51.020;6.764;2022-12-29T11:44:23;8.27;;;1.83;;
11837;SDS011;5978;51.020;6.764;2022-12-29T11:46:50;3.53;;;1.50;;
11837;SDS011;5978;51.020;6.764;2022-12-29T11:49:22;11.13;;;1.60;;
11837;SDS011;5978;51.020;6.764;2022-12-29T11:51:50;4.93;;;1.53;;
11837;SDS011;5978;51.020;6.764;2022-12-29T11:54:30;3.57;;;1.73;;
11837;SDS011;5978;51.020;6.764;2022-12-29T11:57:08;14.87;;;2.33;;
11837;SDS011;5978;51.020;6.764;2022-12-29T11:59:39;11.40;;;2.10;;
11837;SDS011;5978;51.020;6.764;2022-12-29T12:04:45;4.07;;;1.40;;
11837;SDS011;5978;51.020;6.764;2022-12-29T12:07:17;2.50;;;1.07;;
11837;SDS011;5978;51.020;6.764;2022-12-29T12:09:51;8.17;;;1.60;;
11837;SDS011;5978;51.020;6.764;2022-12-29T12:12:29;3.00;;;1.50;;
11837;SDS011;5978;51.020;6.764;2022-12-29T12:15:05;8.40;;;1.60;;
11837;SDS011;5978;51.020;6.764;2022-12-29T12:17:43;4.20;;;1.60;;
11837;SDS011;5978;51.020;6.764;2022-12-29T12:20:14;6.50;;;1.60;;
11837;SDS011;5978;51.020;6.764;2022-12-29T12:23:06;5.90;;;1.50;;
11837;SDS011;5978;51.020;6.764;2022-12-29T12:31:56;2.40;;;1.53;;
11837;SDS011;5978;51.020;6.764;2022-12-29T12:34:20;6.13;;;2.00;;
11837;SDS011;5978;51.020;6.764;2022-12-29T12:53:51;5.33;;;1.30;;
11837;SDS011;5978;51.020;6.764;2022-12-29T12:56:44;1.57;;;1.00;;
11837;SDS011;5978;51.020;6.764;2022-12-29T12:59:40;4.67;;;1.10;;
11837;SDS011;5978;51.020;6.764;2022-12-29T13:08:31;6.30;;;2.17;;
11837;SDS011;5978;51.020;6.764;2022-12-29T13:22:38;4.50;;;1.30;;
11837;SDS011;5978;51.020;6.764;2022-12-29T13:25:37;4.17;;;1.13;;
11837;SDS011;5978;51.020;6.764;2022-12-29T13:38:55;4.63;;;1.13;;
11837;SDS011;5978;51.020;6.764;2022-12-29T13:41:52;2.30;;;1.20;;
11837;SDS011;5978;51.020;6.764;2022-12-29T13:44:23;5.07;;;1.43;;
11837;SDS011;5978;51.020;6.764;2022-12-29T13:46:52;5.70;;;1.07;;
11837;SDS011;5978;51.020;6.764;2022-12-29T13:49:21;11.60;;;1.67;;
11837;SDS011;5978;51.020;6.764;2022-12-29T13:55:05;6.53;;;1.83;;
11837;SDS011;5978;51.020;6.764;2022-12-29T13:57:58;6.60;;;1.40;;
11837;SDS011;5978;51.020;6.764;2022-12-29T14:00:39;4.53;;;1.70;;
11837;SDS011;5978;51.020;6.764;2022-12-29T14:03:27;4.00;;;1.53;;
11837;SDS011;5978;51.020;6.764;2022-12-29T14:06:22;2.40;;;1.10;;
11837;SDS011;5978;51.020;6.764;2022-12-29T14:08:53;5.10;;;1.33;;
11837;SDS011;5978;51.020;6.764;2022-12-29T14:11:21;2.00;;;1.37;;
11837;SDS011;5978;51.020;6.764;2022-12-29T14:13:49;1.60;;;1.17;;
11837;SDS011;5978;51.020;6.764;2022-12-29T14:16:28;3.43;;;1.53;;
11837;SDS011;5978;51.020;6.764;2022-12-29T14:18:56;2.50;;;1.20;;
11837;SDS011;5978;51.020;6.764;2022-12-29T14:21:37;3.63;;;1.60;;
11837;SDS011;5978;51.020;6.764;2022-12-29T14:27:00;6.17;;;1.73;;
11837;SDS011;5978;51.020;6.764;2022-12-29T14:29:47;7.20;;;2.33;;
11837;SDS011;5978;51.020;6.764;2022-12-29T14:34:46;5.00;;;1.20;;
11837;SDS011;5978;51.020;6.764;2022-12-29T14:40:02;3.17;;;1.40;;
11837;SDS011;5978;51.020;6.764;2022-12-29T14:42:31;3.63;;;1.33;;
11837;SDS011;5978;51.020;6.764;2022-12-29T14:47:47;2.77;;;1.20;;
11837;SDS011;5978;51.020;6.764;2022-12-29T14:50:16;3.03;;;1.83;;
11837;SDS011;5978;51.020;6.764;2022-12-29T14:52:53;1.90;;;1.47;;
11837;SDS011;5978;51.020;6.764;2022-12-29T14:55:31;6.80;;;2.10;;
11837;SDS011;5978;51.020;6.764;2022-12-29T14:58:15;8.00;;;1.53;;
11837;SDS011;5978;51.020;6.764;2022-12-29T15:00:47;4.50;;;1.20;;
11837;SDS011;5978;51.020;6.764;2022-12-29T15:08:39;6.23;;;1.57;;
11837;SDS011;5978;51.020;6.764;2022-12-29T15:11:21;13.50;;;1.53;;
11837;SDS011;5978;51.020;6.764;2022-12-29T15:13:48;4.70;;;1.73;;
11837;SDS011;5978;51.020;6.764;2022-12-29T15:18:56;4.27;;;1.70;;
11837;SDS011;5978;51.020;6.764;2022-12-29T15:21:24;5.70;;;1.70;;
11837;SDS011;5978;51.020;6.764;2022-12-29T15:23:52;8.63;;;3.33;;
11837;SDS011;5978;51.020;6.764;2022-12-29T15:26:18;3.97;;;1.03;;
11837;SDS011;5978;51.020;6.764;2022-12-29T15:28:51;3.57;;;1.40;;
11837;SDS011;5978;51.020;6.764;2022-12-29T15:31:18;4.17;;;1.73;;
11837;SDS011;5978;51.020;6.764;2022-12-29T15:34:01;3.73;;;1.70;;
11837;SDS011;5978;51.020;6.764;2022-12-29T15:36:37;4.60;;;1.80;;
11837;SDS011;5978;51.020;6.764;2022-12-29T15:39:20;5.80;;;1.60;;
11837;SDS011;5978;51.020;6.764;2022-12-29T15:41:57;2.90;;;1.30;;
11837;SDS011;5978;51.020;6.764;2022-12-29T15:44:32;4.63;;;1.50;;
11837;SDS011;5978;51.020;6.764;2022-12-29T15:47:05;5.83;;;1.30;;
11837;SDS011;5978;51.020;6.764;2022-12-29T15:52:49;6.37;;;3.00;;
11837;SDS011;5978;51.020;6.764;2022-12-29T15:55:19;4.90;;;2.00;;
11837;SDS011;5978;51.020;6.764;2022-12-29T15:57:59;9.80;;;2.07;;
11837;SDS011;5978;51.020;6.764;2022-12-29T16:00:28;5.70;;;2.13;;
11837;SDS011;5978;51.020;6.764;2022-12-29T16:02:57;8.90;;;2.40;;
11837;SDS011;5978;51.020;6.764;2022-12-29T16:05:31;7.17;;;2.10;;
11837;SDS011;5978;51.020;6.764;2022-12-29T16:08:00;5.53;;;2.03;;
11837;SDS011;5978;51.020;6.764;2022-12-29T16:10:39;4.80;;;1.57;;
11837;SDS011;5978;51.020;6.764;2022-12-29T16:15:47;10.40;;;2.13;;
11837;SDS011;5978;51.020;6.764;2022-12-29T16:18:20;7.47;;;2.40;;
11837;SDS011;5978;51.020;6.764;2022-12-29T16:20:49;7.33;;;3.03;;
11837;SDS011;5978;51.020;6.764;2022-12-29T16:23:22;5.97;;;1.93;;
11837;SDS011;5978;51.020;6.764;2022-12-29T16:25:51;5.87;;;2.03;;
11837;SDS011;5978;51.020;6.764;2022-12-29T16:28:23;6.80;;;2.13;;
11837;SDS011;5978;51.020;6.764;2022-12-29T16:31:06;13.23;;;2.27;;
11837;SDS011;5978;51.020;6.764;2022-12-29T16:33:48;4.20;;;2.00;;
11837;SDS011;5978;51.020;6.764;2022-12-29T16:39:05;5.45;;;2.25;;
11837;SDS011;5978;51.020;6.764;2022-12-29T16:41:45;3.40;;;1.75;;
11837;SDS011;5978;51.020;6.764;2022-12-29T16:49:27;5.55;;;2.22;;
11837;SDS011;5978;51.020;6.764;2022-12-29T16:51:54;5.32;;;1.85;;
11837;SDS011;5978;51.020;6.764;2022-12-29T16:54:32;7.63;;;4.75;;
11837;SDS011;5978;51.020;6.764;2022-12-29T16:57:00;5.40;;;2.25;;
11837;SDS011;5978;51.020;6.764;2022-12-29T17:02:05;8.43;;;2.33;;
11837;SDS011;5978;51.020;6.764;2022-12-29T17:04:32;7.55;;;1.73;;
11837;SDS011;5978;51.020;6.764;2022-12-29T17:06:58;7.33;;;2.37;;
11837;SDS011;5978;51.020;6.764;2022-12-29T17:09:24;3.87;;;2.40;;
11837;SDS011;5978;51.020;6.764;2022-12-29T17:11:55;11.38;;;1.90;;
11837;SDS011;5978;51.020;6.764;2022-12-29T17:19:57;17.25;;;2.20;;
11837;SDS011;5978;51.020;6.764;2022-12-29T17:22:38;12.32;;;2.95;;
11837;SDS011;5978;51.020;6.764;2022-12-29T17:25:03;4.70;;;1.40;;
11837;SDS011;5978;51.020;6.764;2022-12-29T17:27:40;8.00;;;2.10;;
11837;SDS011;5978;51.020;6.764;2022-12-29T17:30:14;8.75;;;1.90;;
11837;SDS011;5978;51.020;6.764;2022-12-29T17:32:41;9.05;;;2.65;;
11837;SDS011;5978;51.020;6.764;2022-12-29T17:35:17;10.93;;;2.85;;
11837;SDS011;5978;51.020;6.764;2022-12-29T17:37:45;5.05;;;2.28;;
11837;SDS011;5978;51.020;6.764;2022-12-29T17:40:15;7.57;;;2.33;;
11837;SDS011;5978;51.020;6.764;2022-12-29T17:42:46;6.68;;;1.98;;
11837;SDS011;5978;51.020;6.764;2022-12-29T17:47:40;7.68;;;2.30;;
11837;SDS011;5978;51.020;6.764;2022-12-29T17:50:10;4.13;;;1.90;;
11837;SDS011;5978;51.020;6.764;2022-12-29T17:52:37;14.57;;;2.20;;
11837;SDS011;5978;51.020;6.764;2022-12-29T17:55:03;4.93;;;2.20;;
11837;SDS011;5978;51.020;6.764;2022-12-29T17:57:29;9.80;;;2.50;;
11837;SDS011;5978;51.020;6.764;2022-12-29T17:59:54;8.50;;;2.20;;
11837;SDS011;5978;51.020;6.764;2022-12-29T18:02:28;6.40;;;2.90;;
11837;SDS011;5978;51.020;6.764;2022-12-29T18:04:58;4.72;;;2.05;;
11837;SDS011;5978;51.020;6.764;2022-12-29T18:07:25;6.07;;;3.33;;